createdAt,value
2018-10-06T00:00:08.612Z,101009.56
2018-10-06T00:00:23.328Z,101009.56
2018-10-06T00:00:35.107Z,101011.39
2018-10-06T00:00:46.851Z,101009.56
2018-10-06T00:00:58.611Z,101007.88
2018-10-06T00:01:10.360Z,101013.47
2018-10-06T00:01:22.118Z,101004.73
2018-10-06T00:01:33.911Z,101012.16
2018-10-06T00:01:45.680Z,101008.64
2018-10-06T00:01:57.435Z,101008.26
2018-10-06T00:02:09.183Z,101010.48
2018-10-06T00:02:20.934Z,101009.17
2018-10-06T00:02:32.758Z,101007.69
2018-10-06T00:02:44.534Z,101008.64
2018-10-06T00:02:56.286Z,101013.85
2018-10-06T00:03:08.060Z,101006.57
2018-10-06T00:03:19.817Z,101010.48
2018-10-06T00:03:31.573Z,101009.95
2018-10-06T00:03:43.321Z,101012.55
2018-10-06T00:03:55.075Z,101010.48
2018-10-06T00:04:06.848Z,101006.38
2018-10-06T00:04:18.614Z,101007.34
2018-10-06T00:04:30.380Z,101009.95
2018-10-06T00:04:42.133Z,101014.39
2018-10-06T00:04:53.907Z,101010.29
2018-10-06T00:05:05.957Z,101010.29
2018-10-06T00:05:17.711Z,101011.25
2018-10-06T00:05:29.486Z,101007.69
2018-10-06T00:05:41.260Z,101004.73
2018-10-06T00:05:53.012Z,101011.59
2018-10-06T00:06:04.780Z,101005.47
2018-10-06T00:06:16.531Z,101009.95
2018-10-06T00:06:28.290Z,101008.98
2018-10-06T00:06:40.043Z,101009.95
2018-10-06T00:06:51.821Z,101012.89
2018-10-06T00:07:03.596Z,101006.77
2018-10-06T00:07:15.343Z,101010.29
2018-10-06T00:07:27.259Z,101006.77
2018-10-06T00:07:39.036Z,101012.89
2018-10-06T00:07:50.823Z,101004.16
2018-10-06T00:08:02.576Z,101012.36
2018-10-06T00:08:14.339Z,101006.38
2018-10-06T00:08:26.128Z,101013.85
2018-10-06T00:08:37.885Z,101002.86
2018-10-06T00:08:49.649Z,101006.38
2018-10-06T00:09:01.415Z,101012.89
2018-10-06T00:09:13.189Z,101010.67
2018-10-06T00:09:24.944Z,101010.29
2018-10-06T00:09:36.700Z,101009.95
2018-10-06T00:09:48.484Z,101006.03
2018-10-06T00:10:00.256Z,101007.69
2018-10-06T00:10:12.113Z,101006.38
2018-10-06T00:10:23.890Z,101009.56
2018-10-06T00:10:35.646Z,101004.16
2018-10-06T00:10:47.391Z,101006.38
2018-10-06T00:10:59.152Z,101003.78
2018-10-06T00:11:10.920Z,101006.77
2018-10-06T00:11:22.663Z,101007.53
2018-10-06T00:11:34.455Z,101005.47
2018-10-06T00:11:46.212Z,101001.94
2018-10-06T00:11:57.959Z,101006.77
2018-10-06T00:12:09.729Z,101003.78
2018-10-06T00:12:21.550Z,101003.78
2018-10-06T00:12:33.291Z,101004.16
2018-10-06T00:12:45.059Z,101003.78
2018-10-06T00:12:56.843Z,101005.47
2018-10-06T00:13:08.603Z,101006.38
2018-10-06T00:13:20.391Z,101001.94
2018-10-06T00:13:32.151Z,101002.48
2018-10-06T00:13:43.913Z,101003.24
2018-10-06T00:13:55.708Z,101000.64
2018-10-06T00:14:07.431Z,101003.24
2018-10-06T00:14:19.175Z,101004.16
2018-10-06T00:14:30.935Z,101003.24
2018-10-06T00:14:42.691Z,101003.24
2018-10-06T00:14:54.460Z,101001.94
2018-10-06T00:15:06.225Z,101002.86
2018-10-06T00:15:17.990Z,101004.16
2018-10-06T00:15:30.091Z,100995.05
2018-10-06T00:15:41.873Z,101001.56
2018-10-06T00:15:53.632Z,101003.43
2018-10-06T00:16:05.415Z,101002.86
2018-10-06T00:16:17.166Z,101005.08
2018-10-06T00:16:28.920Z,101002.33
2018-10-06T00:16:40.671Z,101001.94
2018-10-06T00:16:52.591Z,100999.87
2018-10-06T00:17:04.471Z,101002.48
2018-10-06T00:17:16.240Z,101002.86
2018-10-06T00:17:28.139Z,101005.08
2018-10-06T00:17:40.235Z,101003.24
2018-10-06T00:17:52.225Z,100998.03
2018-10-06T00:18:03.982Z,101008.84
2018-10-06T00:18:15.727Z,101007.53
2018-10-06T00:18:27.503Z,101003.78
2018-10-06T00:18:39.259Z,101004.55
2018-10-06T00:18:51.034Z,101006.77
2018-10-06T00:19:02.798Z,101003.63
2018-10-06T00:19:14.554Z,101003.63
2018-10-06T00:19:26.383Z,101001.56
2018-10-06T00:19:38.147Z,101001.02
2018-10-06T00:19:50.209Z,101007.53
2018-10-06T00:20:01.975Z,101005.47
2018-10-06T00:20:13.733Z,101001.94
2018-10-06T00:20:25.508Z,101006.23
2018-10-06T00:20:37.508Z,101006.23
2018-10-06T00:20:49.255Z,101007.15
2018-10-06T00:21:01.040Z,101009.75
2018-10-06T00:21:12.792Z,101002.48
2018-10-06T00:21:24.572Z,101004.55
2018-10-06T00:21:36.322Z,101004.16
2018-10-06T00:21:48.076Z,101003.78
2018-10-06T00:21:59.829Z,101003.24
2018-10-06T00:22:11.806Z,101000.10
2018-10-06T00:22:24.118Z,100997.11
2018-10-06T00:22:35.893Z,101000.25
2018-10-06T00:22:47.871Z,101005.47
2018-10-06T00:22:59.654Z,101002.33
2018-10-06T00:23:11.409Z,101001.94
2018-10-06T00:23:23.165Z,100999.72
2018-10-06T00:23:35.480Z,101002.33
2018-10-06T00:23:47.239Z,101002.70
2018-10-06T00:23:59.016Z,101002.33
2018-10-06T00:24:10.908Z,101001.41
2018-10-06T00:24:22.646Z,100998.42
2018-10-06T00:24:34.653Z,100995.28
2018-10-06T00:24:46.537Z,100999.72
2018-10-06T00:24:58.302Z,101003.24
2018-10-06T00:25:10.060Z,100998.03
2018-10-06T00:25:21.923Z,101000.10
2018-10-06T00:25:33.739Z,100998.42
2018-10-06T00:25:45.486Z,101000.64
2018-10-06T00:25:57.248Z,100996.73
2018-10-06T00:26:09.078Z,101002.70
2018-10-06T00:26:20.842Z,101000.10
2018-10-06T00:26:32.605Z,100998.42
2018-10-06T00:26:44.367Z,100993.98
2018-10-06T00:26:56.122Z,100995.81
2018-10-06T00:27:07.880Z,100998.80
2018-10-06T00:27:19.684Z,100998.80
2018-10-06T00:27:31.430Z,100991.38
2018-10-06T00:27:43.198Z,100997.50
2018-10-06T00:27:54.980Z,100995.81
2018-10-06T00:28:06.730Z,100998.42
2018-10-06T00:28:18.489Z,100995.28
2018-10-06T00:28:30.273Z,100993.59
2018-10-06T00:28:42.025Z,100991.75
2018-10-06T00:28:53.788Z,100997.11
2018-10-06T00:29:05.549Z,100997.11
2018-10-06T00:29:17.316Z,100993.05
2018-10-06T00:29:29.095Z,100993.44
2018-10-06T00:29:40.855Z,100997.11
2018-10-06T00:29:52.636Z,100995.81
2018-10-06T00:30:04.396Z,100995.81
2018-10-06T00:30:16.137Z,100990.61
2018-10-06T00:30:27.904Z,100990.98
2018-10-06T00:30:39.676Z,100988.38
2018-10-06T00:30:51.435Z,100992.29
2018-10-06T00:31:03.187Z,100987.47
2018-10-06T00:31:14.961Z,100989.15
2018-10-06T00:31:26.730Z,100988.23
2018-10-06T00:31:38.504Z,100988.38
2018-10-06T00:31:50.251Z,100990.45
2018-10-06T00:32:01.998Z,100985.24
2018-10-06T00:32:13.757Z,100989.69
2018-10-06T00:32:26.115Z,100990.06
2018-10-06T00:32:37.878Z,100981.34
2018-10-06T00:32:49.664Z,100983.94
2018-10-06T00:33:01.435Z,100983.94
2018-10-06T00:33:13.208Z,100982.25
2018-10-06T00:33:24.982Z,100987.08
2018-10-06T00:33:36.741Z,100988.92
2018-10-06T00:33:48.506Z,100991.91
2018-10-06T00:34:00.258Z,100986.16
2018-10-06T00:34:12.023Z,100986.70
2018-10-06T00:34:23.786Z,100984.86
2018-10-06T00:34:35.658Z,100982.64
2018-10-06T00:34:48.061Z,100992.67
2018-10-06T00:34:59.832Z,100984.86
2018-10-06T00:35:11.589Z,100981.34
2018-10-06T00:35:23.347Z,100983.56
2018-10-06T00:35:35.123Z,100983.94
2018-10-06T00:35:46.879Z,100983.56
2018-10-06T00:35:58.653Z,100984.48
2018-10-06T00:36:10.438Z,100986.70
2018-10-06T00:36:22.181Z,100986.16
2018-10-06T00:36:33.948Z,100987.47
2018-10-06T00:36:45.735Z,100987.84
2018-10-06T00:36:57.508Z,100988.38
2018-10-06T00:37:09.277Z,100985.78
2018-10-06T00:37:21.044Z,100985.78
2018-10-06T00:37:32.826Z,100985.78
2018-10-06T00:37:44.595Z,100983.17
2018-10-06T00:37:56.345Z,100980.95
2018-10-06T00:38:09.052Z,100984.86
2018-10-06T00:38:21.671Z,100984.86
2018-10-06T00:38:35.261Z,100983.94
2018-10-06T00:38:47.034Z,100983.56
2018-10-06T00:38:59.650Z,100982.25
2018-10-06T00:39:11.419Z,100988.00
2018-10-06T00:39:23.959Z,100980.95
2018-10-06T00:39:35.728Z,100981.34
2018-10-06T00:39:48.151Z,100975.59
2018-10-06T00:39:59.919Z,100979.66
2018-10-06T00:40:12.456Z,100978.73
2018-10-06T00:40:24.215Z,100984.48
2018-10-06T00:40:35.966Z,100983.94
2018-10-06T00:40:47.730Z,100980.95
2018-10-06T00:41:00.377Z,100977.81
2018-10-06T00:41:12.651Z,100981.34
2018-10-06T00:41:24.427Z,100982.64
2018-10-06T00:41:36.199Z,100979.11
2018-10-06T00:41:53.477Z,100986.92
2018-10-06T00:42:08.429Z,100982.64
2018-10-06T00:42:21.192Z,100982.64
2018-10-06T00:42:37.387Z,100981.72
2018-10-06T00:42:49.145Z,100982.10
2018-10-06T00:43:05.202Z,100979.11
2018-10-06T00:43:18.609Z,100978.58
2018-10-06T00:43:32.147Z,100984.33
2018-10-06T00:43:44.648Z,100981.19
2018-10-06T00:43:57.410Z,100987.31
2018-10-06T00:44:11.541Z,100984.33
2018-10-06T00:44:27.074Z,100977.66
2018-10-06T00:44:38.850Z,100978.97
2018-10-06T00:44:51.800Z,100980.80
2018-10-06T00:45:03.565Z,100982.10
2018-10-06T00:45:16.327Z,100982.10
2018-10-06T00:45:30.674Z,100979.50
2018-10-06T00:45:43.190Z,100976.52
2018-10-06T00:45:58.129Z,100975.59
2018-10-06T00:46:13.263Z,100975.59
2018-10-06T00:46:25.034Z,100977.43
2018-10-06T00:46:38.802Z,100976.13
2018-10-06T00:46:50.581Z,100979.11
2018-10-06T00:47:02.352Z,100976.52
2018-10-06T00:47:14.147Z,100979.11
2018-10-06T00:47:25.978Z,100980.80
2018-10-06T00:47:37.750Z,100978.58
2018-10-06T00:47:49.502Z,100982.87
2018-10-06T00:48:01.270Z,100972.45
2018-10-06T00:48:13.069Z,100977.28
2018-10-06T00:48:24.873Z,100981.19
2018-10-06T00:49:40.061Z,100979.88
2018-10-06T00:49:51.854Z,100981.19
2018-10-06T00:50:03.625Z,100984.33
2018-10-06T00:50:15.388Z,100981.72
2018-10-06T00:50:27.127Z,100984.70
2018-10-06T00:50:39.677Z,100978.97
2018-10-06T00:50:51.421Z,100978.97
2018-10-06T00:51:03.194Z,100982.87
2018-10-06T00:51:15.778Z,100983.41
2018-10-06T00:51:27.526Z,100982.10
2018-10-06T00:51:41.075Z,100977.66
2018-10-06T00:51:54.026Z,100985.09
2018-10-06T00:52:07.729Z,100980.80
2018-10-06T00:52:20.651Z,100984.56
2018-10-06T00:52:34.549Z,100978.20
2018-10-06T00:52:46.321Z,100980.42
2018-10-06T00:52:58.742Z,100983.41
2018-10-06T00:53:10.522Z,100981.57
2018-10-06T00:53:24.064Z,100979.88
2018-10-06T00:53:35.838Z,100982.10
2018-10-06T00:53:47.608Z,100974.67
2018-10-06T00:54:00.860Z,100977.13
2018-10-06T00:54:12.612Z,100979.88
2018-10-06T00:54:24.406Z,100982.10
2018-10-06T00:54:39.596Z,100981.19
2018-10-06T00:54:51.335Z,100977.28
2018-10-06T00:55:03.138Z,100985.09
2018-10-06T00:55:15.721Z,100979.88
2018-10-06T00:55:27.509Z,100977.66
2018-10-06T00:55:40.320Z,100979.88
2018-10-06T00:55:52.862Z,100985.48
2018-10-06T00:56:04.619Z,100981.03
2018-10-06T00:56:17.971Z,100977.13
2018-10-06T00:56:31.301Z,100977.66
2018-10-06T00:56:43.941Z,100978.97
2018-10-06T00:56:55.690Z,100979.88
2018-10-06T00:57:09.537Z,100985.09
2018-10-06T00:57:25.258Z,100985.09
2018-10-06T00:57:37.935Z,100980.65
2018-10-06T00:57:51.963Z,100980.27
2018-10-06T00:58:03.723Z,100984.70
2018-10-06T00:58:15.601Z,100987.31
2018-10-06T00:58:27.359Z,100980.80
2018-10-06T00:58:39.856Z,100978.58
2018-10-06T00:58:51.612Z,100975.59
2018-10-06T00:59:03.372Z,100975.59
2018-10-06T00:59:17.356Z,100981.19
2018-10-06T00:59:29.109Z,100980.80
2018-10-06T00:59:41.683Z,100978.58
2018-10-06T00:59:53.740Z,100983.41
2018-10-06T01:00:06.702Z,100979.50
2018-10-06T01:00:20.027Z,100982.48
2018-10-06T01:00:31.816Z,100981.72
2018-10-06T01:00:43.581Z,100978.20
2018-10-06T01:00:55.684Z,100976.36
2018-10-06T01:01:08.647Z,100976.36
2018-10-06T01:01:21.331Z,100971.15
2018-10-06T01:01:34.296Z,100973.75
2018-10-06T01:01:46.030Z,100975.59
2018-10-06T01:01:58.060Z,100981.19
2018-10-06T01:02:09.899Z,100981.95
2018-10-06T01:02:21.647Z,100975.05
2018-10-06T01:02:33.408Z,100975.97
2018-10-06T01:02:45.159Z,100973.38
2018-10-06T01:02:57.626Z,100981.57
2018-10-06T01:03:09.368Z,100972.45
2018-10-06T01:03:21.151Z,100972.45
2018-10-06T01:03:32.913Z,100974.67
2018-10-06T01:03:44.690Z,100975.20
2018-10-06T01:03:56.435Z,100974.29
2018-10-06T01:04:08.786Z,100978.20
2018-10-06T01:04:21.339Z,100975.59
2018-10-06T01:04:34.220Z,100971.53
2018-10-06T01:04:45.996Z,100970.62
2018-10-06T01:04:57.765Z,100975.83
2018-10-06T01:05:10.319Z,100972.45
2018-10-06T01:05:22.096Z,100975.05
2018-10-06T01:05:34.541Z,100978.58
2018-10-06T01:05:48.609Z,100977.13
2018-10-06T01:06:01.039Z,100974.14
2018-10-06T01:06:13.959Z,100975.44
2018-10-06T01:06:26.376Z,100981.19
2018-10-06T01:06:39.705Z,100977.13
2018-10-06T01:06:52.385Z,100973.22
2018-10-06T01:07:06.693Z,100977.28
2018-10-06T01:07:18.446Z,100972.45
2018-10-06T01:07:31.379Z,100976.74
2018-10-06T01:07:43.420Z,100978.05
2018-10-06T01:07:55.188Z,100980.80
2018-10-06T01:08:07.583Z,100968.02
2018-10-06T01:08:19.340Z,100976.74
2018-10-06T01:08:31.097Z,100976.74
2018-10-06T01:08:42.856Z,100978.43
2018-10-06T01:08:54.604Z,100975.44
2018-10-06T01:09:07.175Z,100978.05
2018-10-06T01:09:19.918Z,100975.05
2018-10-06T01:09:32.693Z,100975.05
2018-10-06T01:09:45.306Z,100972.30
2018-10-06T01:10:05.347Z,100980.27
2018-10-06T01:10:17.460Z,100972.45
2018-10-06T01:10:29.225Z,100976.74
2018-10-06T01:10:41.648Z,100975.97
2018-10-06T01:10:55.786Z,100982.34
2018-10-06T01:11:07.798Z,100975.83
2018-10-06T01:11:21.051Z,100977.13
2018-10-06T01:11:47.818Z,100977.13
2018-10-06T01:11:59.580Z,100976.74
2018-10-06T01:12:14.527Z,100975.44
2018-10-06T01:12:28.996Z,100980.27
2018-10-06T01:12:42.176Z,100977.66
2018-10-06T01:12:56.667Z,100976.20
2018-10-06T01:13:12.341Z,100978.97
2018-10-06T01:13:25.315Z,100978.05
2018-10-06T01:13:38.829Z,100977.66
2018-10-06T01:13:53.553Z,100975.44
2018-10-06T01:14:07.179Z,100977.89
2018-10-06T01:14:22.764Z,100979.34
2018-10-06T01:14:40.476Z,100977.13
2018-10-06T01:14:54.519Z,100977.13
2018-10-06T01:15:07.747Z,100975.44
2018-10-06T01:15:20.391Z,100980.65
2018-10-06T01:15:35.546Z,100976.20
2018-10-06T01:15:47.355Z,100975.83
2018-10-06T01:16:02.221Z,100975.83
2018-10-06T01:16:15.496Z,100973.60
2018-10-06T01:16:31.980Z,100976.20
2018-10-06T01:16:44.667Z,100969.70
2018-10-06T01:16:57.144Z,100971.38
2018-10-06T01:17:09.470Z,100968.39
2018-10-06T01:17:22.942Z,100974.91
2018-10-06T01:17:37.702Z,100975.44
2018-10-06T01:17:50.507Z,100976.20
2018-10-06T01:18:09.898Z,100971.92
2018-10-06T01:18:23.162Z,100971.00
2018-10-06T01:18:42.564Z,100976.20
2018-10-06T01:18:57.265Z,100972.69
2018-10-06T01:19:09.178Z,100970.46
2018-10-06T01:19:23.850Z,100976.20
2018-10-06T01:19:42.977Z,100972.30
2018-10-06T01:19:54.755Z,100974.91
2018-10-06T01:20:07.404Z,100973.60
2018-10-06T01:20:37.708Z,100967.86
2018-10-06T01:20:50.696Z,100974.52
2018-10-06T01:21:03.645Z,100971.38
2018-10-06T01:21:18.391Z,100972.84
2018-10-06T01:21:31.714Z,100973.60
2018-10-06T01:21:44.716Z,100970.62
2018-10-06T01:21:59.042Z,100971.38
2018-10-06T01:22:13.635Z,100968.78
2018-10-06T01:22:35.948Z,100964.88
2018-10-06T01:22:50.578Z,100971.92
2018-10-06T01:23:06.296Z,100969.70
2018-10-06T01:23:23.719Z,100974.91
2018-10-06T01:23:37.944Z,100969.31
2018-10-06T01:23:53.183Z,100971.53
2018-10-06T01:24:20.552Z,100974.91
2018-10-06T01:24:33.372Z,100970.23
2018-10-06T01:24:51.046Z,100973.22
2018-10-06T01:25:03.540Z,100969.31
2018-10-06T01:25:17.114Z,100971.00
2018-10-06T01:25:30.302Z,100971.00
2018-10-06T01:25:44.632Z,100966.17
2018-10-06T01:26:02.938Z,100970.08
2018-10-06T01:26:18.362Z,100967.09
2018-10-06T01:26:30.158Z,100967.62
2018-10-06T01:26:41.917Z,100971.53
2018-10-06T01:26:56.329Z,100966.33
2018-10-06T01:27:08.469Z,100970.23
2018-10-06T01:27:21.983Z,100973.38
2018-10-06T01:27:36.198Z,100969.47
2018-10-06T01:27:49.161Z,100963.72
2018-10-06T01:28:04.670Z,100967.24
2018-10-06T01:28:20.948Z,100963.72
2018-10-06T01:28:33.393Z,100968.16
2018-10-06T01:28:47.108Z,100968.55
2018-10-06T01:29:03.875Z,100962.03
2018-10-06T01:29:17.934Z,100962.80
2018-10-06T01:29:32.948Z,100965.79
2018-10-06T01:29:50.266Z,100962.42
2018-10-06T01:30:04.944Z,100967.24
2018-10-06T01:30:16.715Z,100966.86
2018-10-06T01:30:29.415Z,100965.02
2018-10-06T01:30:44.692Z,100965.79
2018-10-06T01:30:56.453Z,100962.80
2018-10-06T01:31:09.228Z,100967.62
2018-10-06T01:31:21.185Z,100962.80
2018-10-06T01:31:32.984Z,100963.72
2018-10-06T01:31:44.732Z,100965.02
2018-10-06T01:31:56.545Z,100963.34
2018-10-06T01:32:08.305Z,100961.65
2018-10-06T01:32:20.046Z,100969.08
2018-10-06T01:32:31.796Z,100968.55
2018-10-06T01:32:44.310Z,100963.34
2018-10-06T01:32:57.788Z,100963.72
2018-10-06T01:33:12.452Z,100965.41
2018-10-06T01:33:25.040Z,100964.48
2018-10-06T01:33:38.608Z,100962.80
2018-10-06T01:33:51.372Z,100961.11
2018-10-06T01:34:03.123Z,100968.16
2018-10-06T01:34:39.511Z,100966.33
2018-10-06T01:34:53.043Z,100966.17
2018-10-06T01:35:04.809Z,100962.80
2018-10-06T01:35:21.176Z,100964.11
2018-10-06T01:35:43.896Z,100963.19
2018-10-06T01:35:59.309Z,100962.80
2018-10-06T01:36:12.394Z,100962.95
2018-10-06T01:36:28.001Z,100965.94
2018-10-06T01:36:41.625Z,100958.51
2018-10-06T01:36:55.339Z,100962.95
2018-10-06T01:37:07.895Z,100962.03
2018-10-06T01:37:19.722Z,100965.17
2018-10-06T01:37:31.624Z,100964.25
2018-10-06T01:37:43.387Z,100964.25
2018-10-06T01:37:55.156Z,100965.55
2018-10-06T01:38:07.006Z,100969.08
2018-10-06T01:38:18.796Z,100960.34
2018-10-06T01:38:30.624Z,100962.57
2018-10-06T01:38:42.622Z,100959.81
2018-10-06T01:38:54.386Z,100959.81
2018-10-06T01:39:06.224Z,100958.51
2018-10-06T01:39:17.995Z,100970.77
2018-10-06T01:39:30.235Z,100965.94
2018-10-06T01:39:42.136Z,100960.34
2018-10-06T01:39:53.892Z,100959.43
2018-10-06T01:40:05.647Z,100957.98
2018-10-06T01:40:17.411Z,100958.51
2018-10-06T01:40:29.168Z,100960.20
2018-10-06T01:40:40.984Z,100964.11
2018-10-06T01:40:52.766Z,100958.51
2018-10-06T01:41:04.538Z,100960.73
2018-10-06T01:41:16.451Z,100956.30
2018-10-06T01:41:28.238Z,100959.43
2018-10-06T01:41:40.063Z,100958.13
2018-10-06T01:41:51.828Z,100959.81
2018-10-06T01:42:03.579Z,100955.52
2018-10-06T01:42:15.429Z,100958.13
2018-10-06T01:42:27.180Z,100960.34
2018-10-06T01:42:38.954Z,100956.44
2018-10-06T01:42:50.715Z,100956.83
2018-10-06T01:43:02.470Z,100956.44
2018-10-06T01:43:14.349Z,100954.60
2018-10-06T01:43:26.105Z,100955.14
2018-10-06T01:43:37.878Z,100955.14
2018-10-06T01:43:49.743Z,100956.06
2018-10-06T01:44:01.549Z,100952.53
2018-10-06T01:44:13.396Z,100957.36
2018-10-06T01:44:25.201Z,100949.39
2018-10-06T01:44:36.957Z,100954.22
2018-10-06T01:44:48.863Z,100951.62
2018-10-06T01:45:00.684Z,100960.34
2018-10-06T01:45:12.489Z,100955.91
2018-10-06T01:45:24.378Z,100955.91
2018-10-06T01:45:36.188Z,100949.78
2018-10-06T01:45:48.226Z,100954.60
2018-10-06T01:45:59.992Z,100952.92
2018-10-06T01:46:12.063Z,100955.52
2018-10-06T01:46:23.893Z,100953.45
2018-10-06T01:46:35.664Z,100954.38
2018-10-06T01:46:47.431Z,100953.84
2018-10-06T01:46:59.198Z,100957.36
2018-10-06T01:47:11.044Z,100954.76
2018-10-06T01:47:22.817Z,100952.00
2018-10-06T01:47:34.574Z,100948.63
2018-10-06T01:47:46.311Z,100953.84
2018-10-06T01:47:58.065Z,100947.70
2018-10-06T01:48:09.834Z,100948.09
2018-10-06T01:48:21.674Z,100943.03
2018-10-06T01:48:33.481Z,100945.11
2018-10-06T01:48:45.237Z,100947.33
2018-10-06T01:48:56.978Z,100943.80
2018-10-06T01:49:08.734Z,100941.20
2018-10-06T01:49:20.516Z,100942.12
2018-10-06T01:49:32.271Z,100946.02
2018-10-06T01:49:44.064Z,100938.59
2018-10-06T01:49:55.925Z,100942.88
2018-10-06T01:50:07.684Z,100940.28
2018-10-06T01:50:19.479Z,100942.12
2018-10-06T01:50:31.234Z,100941.20
2018-10-06T01:50:43.009Z,100947.33
2018-10-06T01:50:54.822Z,100939.89
2018-10-06T01:51:06.646Z,100943.80
2018-10-06T01:51:18.359Z,100942.12
2018-10-06T01:51:30.147Z,100935.98
2018-10-06T01:51:41.905Z,100939.36
2018-10-06T01:51:53.715Z,100943.42
2018-10-06T01:52:05.470Z,100936.91
2018-10-06T01:52:17.228Z,100938.21
2018-10-06T01:52:28.989Z,100939.52
2018-10-06T01:52:40.768Z,100936.91
2018-10-06T01:52:52.627Z,100939.89
2018-10-06T01:53:04.403Z,100939.13
2018-10-06T01:53:16.171Z,100939.52
2018-10-06T01:53:27.959Z,100939.13
2018-10-06T01:53:39.733Z,100934.30
2018-10-06T01:53:51.491Z,100933.39
2018-10-06T01:54:03.270Z,100934.30
2018-10-06T01:54:15.034Z,100934.30
2018-10-06T01:54:26.819Z,100933.00
2018-10-06T01:54:38.610Z,100935.98
2018-10-06T01:54:50.361Z,100931.16
2018-10-06T01:55:02.121Z,100935.22
2018-10-06T01:55:13.891Z,100935.45
2018-10-06T01:55:25.672Z,100942.50
2018-10-06T01:55:37.446Z,100929.86
2018-10-06T01:55:49.227Z,100937.30
2018-10-06T01:56:01.008Z,100934.69
2018-10-06T01:56:12.766Z,100939.13
2018-10-06T01:56:24.523Z,100934.16
2018-10-06T01:56:36.263Z,100939.52
2018-10-06T01:56:48.028Z,100937.83
2018-10-06T01:56:59.870Z,100934.69
2018-10-06T01:57:11.720Z,100941.97
2018-10-06T01:57:23.496Z,100938.98
2018-10-06T01:57:35.282Z,100938.59
2018-10-06T01:57:47.073Z,100936.38
2018-10-06T01:57:58.864Z,100937.67
2018-10-06T01:58:10.642Z,100935.07
2018-10-06T01:58:22.395Z,100938.98
2018-10-06T01:58:34.233Z,100937.14
2018-10-06T01:58:45.988Z,100932.84
2018-10-06T01:58:57.756Z,100937.30
2018-10-06T01:59:09.530Z,100938.21
2018-10-06T01:59:21.278Z,100932.47
2018-10-06T01:59:33.107Z,100942.50
2018-10-06T01:59:44.876Z,100935.98
2018-10-06T01:59:56.656Z,100940.81
2018-10-06T02:00:08.427Z,100940.81
2018-10-06T02:00:20.210Z,100936.91
2018-10-06T02:00:32.040Z,100935.84
2018-10-06T02:00:43.805Z,100938.21
2018-10-06T02:00:55.561Z,100930.25
2018-10-06T02:01:07.373Z,100935.61
2018-10-06T02:01:19.126Z,100938.59
2018-10-06T02:01:30.880Z,100934.69
2018-10-06T02:01:42.637Z,100935.61
2018-10-06T02:01:54.398Z,100936.91
2018-10-06T02:02:06.184Z,100933.39
2018-10-06T02:02:17.928Z,100933.39
2018-10-06T02:02:29.693Z,100938.21
2018-10-06T02:02:41.448Z,100940.81
2018-10-06T02:02:53.208Z,100937.83
2018-10-06T02:03:04.989Z,100933.92
2018-10-06T02:03:16.740Z,100935.61
2018-10-06T02:03:28.654Z,100934.30
2018-10-06T02:03:40.431Z,100938.21
2018-10-06T02:03:52.184Z,100931.55
2018-10-06T02:04:03.996Z,100932.47
2018-10-06T02:04:15.751Z,100930.39
2018-10-06T02:04:27.499Z,100931.31
2018-10-06T02:04:39.255Z,100934.30
2018-10-06T02:04:51.012Z,100935.22
2018-10-06T02:05:02.822Z,100931.70
2018-10-06T02:05:14.590Z,100932.23
2018-10-06T02:05:26.421Z,100929.09
2018-10-06T02:05:38.196Z,100926.48
2018-10-06T02:05:50.016Z,100934.69
2018-10-06T02:06:01.771Z,100935.07
2018-10-06T02:06:13.536Z,100932.47
2018-10-06T02:06:25.301Z,100936.38
2018-10-06T02:06:37.106Z,100933.77
2018-10-06T02:06:48.847Z,100931.55
2018-10-06T02:07:00.594Z,100934.69
2018-10-06T02:07:12.353Z,100934.30
2018-10-06T02:07:24.107Z,100929.48
2018-10-06T02:07:35.899Z,100936.91
2018-10-06T02:07:47.653Z,100930.78
2018-10-06T02:07:59.416Z,100934.30
2018-10-06T02:08:11.208Z,100930.78
2018-10-06T02:08:22.962Z,100930.39
2018-10-06T02:08:34.716Z,100928.56
2018-10-06T02:08:46.482Z,100935.98
2018-10-06T02:08:58.295Z,100936.91
2018-10-06T02:09:10.072Z,100935.98
2018-10-06T02:09:21.964Z,100937.83
2018-10-06T02:09:33.715Z,100934.30
2018-10-06T02:09:45.472Z,100934.69
2018-10-06T02:09:57.704Z,100938.21
2018-10-06T02:10:09.481Z,100934.69
2018-10-06T02:10:21.254Z,100934.69
2018-10-06T02:10:33.006Z,100933.39
2018-10-06T02:10:44.874Z,100933.39
2018-10-06T02:10:56.674Z,100934.16
2018-10-06T02:11:08.489Z,100935.07
2018-10-06T02:11:20.258Z,100936.75
2018-10-06T02:11:32.328Z,100930.25
2018-10-06T02:11:44.178Z,100934.16
2018-10-06T02:11:56.059Z,100933.77
2018-10-06T02:12:08.123Z,100935.45
2018-10-06T02:12:20.088Z,100933.77
2018-10-06T02:12:31.918Z,100930.62
2018-10-06T02:12:43.775Z,100932.47
2018-10-06T02:12:55.690Z,100932.08
2018-10-06T02:13:07.496Z,100938.59
2018-10-06T02:13:19.298Z,100933.77
2018-10-06T02:13:31.222Z,100932.47
2018-10-06T02:13:43.037Z,100928.56
2018-10-06T02:13:54.863Z,100932.47
2018-10-06T02:14:06.656Z,100934.69
2018-10-06T02:14:18.464Z,100929.86
2018-10-06T02:14:30.275Z,100932.08
2018-10-06T02:14:42.101Z,100933.77
2018-10-06T02:14:53.932Z,100933.77
2018-10-06T02:15:05.742Z,100935.45
2018-10-06T02:15:18.030Z,100930.25
2018-10-06T02:15:29.998Z,100931.93
2018-10-06T02:15:41.889Z,100931.55
2018-10-06T02:15:53.694Z,100935.07
2018-10-06T02:16:05.603Z,100935.07
2018-10-06T02:16:17.405Z,100932.47
2018-10-06T02:16:29.694Z,100931.55
2018-10-06T02:16:41.863Z,100934.53
2018-10-06T02:16:53.999Z,100931.93
2018-10-06T02:17:06.357Z,100931.02
2018-10-06T02:17:18.541Z,100929.86
2018-10-06T02:17:30.726Z,100926.72
2018-10-06T02:17:42.977Z,100932.84
2018-10-06T02:17:55.114Z,100935.45
2018-10-06T02:18:07.546Z,100936.75
2018-10-06T02:18:19.705Z,100933.23
2018-10-06T02:18:31.986Z,100929.33
2018-10-06T02:18:44.252Z,100933.77
2018-10-06T02:18:56.351Z,100933.23
2018-10-06T02:19:08.291Z,100935.98
2018-10-06T02:19:20.402Z,100936.38
2018-10-06T02:19:32.790Z,100935.98
2018-10-06T02:19:44.974Z,100931.16
2018-10-06T02:19:57.569Z,100937.30
2018-10-06T02:20:10.213Z,100937.83
2018-10-06T02:20:22.404Z,100935.45
2018-10-06T02:20:34.310Z,100940.28
2018-10-06T02:20:46.617Z,100934.53
2018-10-06T02:20:59.216Z,100935.98
2018-10-06T02:21:11.402Z,100936.75
2018-10-06T02:21:23.280Z,100933.77
2018-10-06T02:21:35.569Z,100930.78
2018-10-06T02:21:47.886Z,100931.16
2018-10-06T02:22:00.450Z,100937.30
2018-10-06T02:22:12.535Z,100927.64
2018-10-06T02:22:25.026Z,100932.84
2018-10-06T02:22:37.422Z,100932.84
2018-10-06T02:22:49.705Z,100928.41
2018-10-06T02:23:01.689Z,100929.33
2018-10-06T02:23:13.492Z,100929.86